CTA weather

Catania-Fontanarossa Airport
Catania, Sicily, Italy

Public forecast

Using degrees Celsius for public forecast. Weather courtesy of forecast.io.

Current aviation weather report (METAR) for Catania-Fontanarossa Airport

Retrieved 2019/10/16 11:20 UTC (32 minutes ago):

LICC 161120Z 10005KT 020V140 CAVOK 27/16 Q1018

Aviation forecast (TAF) for Catania-Fontanarossa Airport

Retrieved 2019/10/16 06:21 UTC (6 hours ago):

TAF LICC 160500Z 1606/1706 VRB05KT 9999 SCT030 BECMG 1608/1610 09012KT BECMG 1616/1618 VRB05KT